createdAt,value
2023-01-23T00:00:35.934Z,20.30
2023-01-23T00:03:02.535Z,20.30
2023-01-23T00:05:29.114Z,20.30
2023-01-23T00:07:55.704Z,20.30
2023-01-23T00:10:22.323Z,20.30
2023-01-23T00:12:53.532Z,20.30
2023-01-23T00:15:20.336Z,20.30
2023-01-23T00:17:48.345Z,20.30
2023-01-23T00:20:14.948Z,20.30
2023-01-23T00:22:41.553Z,20.30
2023-01-23T00:25:08.321Z,20.30
2023-01-23T00:27:34.958Z,20.30
2023-01-23T00:30:01.617Z,20.30
2023-01-23T00:32:28.381Z,20.30
2023-01-23T00:34:54.995Z,20.30
2023-01-23T00:37:21.992Z,20.30
2023-01-23T00:39:50.810Z,20.30
2023-01-23T00:42:17.760Z,20.30
2023-01-23T00:44:44.345Z,20.30
2023-01-23T00:47:10.948Z,20.30
2023-01-23T00:49:37.552Z,20.30
2023-01-23T00:52:04.221Z,20.30
2023-01-23T00:54:30.829Z,20.30
2023-01-23T00:56:57.843Z,20.30
2023-01-23T00:59:24.448Z,20.30
2023-01-23T01:01:51.129Z,20.40
2023-01-23T01:04:17.795Z,20.40
2023-01-23T01:06:44.384Z,20.30
2023-01-23T01:09:11.259Z,20.40
2023-01-23T01:11:37.844Z,20.40
2023-01-23T01:14:04.587Z,20.40
2023-01-23T01:16:31.329Z,20.40
2023-01-23T01:18:57.968Z,20.30
2023-01-23T01:21:24.550Z,20.30
2023-01-23T01:23:51.160Z,20.30
2023-01-23T01:26:18.335Z,20.40
2023-01-23T01:28:44.934Z,20.40
2023-01-23T01:31:13.076Z,20.40
2023-01-23T01:33:40.024Z,20.40
2023-01-23T01:36:10.762Z,20.40
2023-01-23T01:38:37.380Z,20.40
2023-01-23T01:41:04.581Z,20.40
2023-01-23T01:43:31.837Z,20.30
2023-01-23T01:46:05.362Z,20.40
2023-01-23T01:48:54.300Z,20.40
2023-01-23T01:51:53.592Z,20.40
2023-01-23T01:54:30.871Z,20.40
2023-01-23T01:56:59.465Z,20.40
2023-01-23T01:59:27.664Z,20.40
2023-01-23T02:01:58.330Z,20.40
2023-01-23T02:04:25.030Z,20.40
2023-01-23T02:06:51.787Z,20.40
2023-01-23T02:09:27.643Z,20.40
2023-01-23T02:11:54.286Z,20.40
2023-01-23T02:14:20.917Z,20.40
2023-01-23T02:16:50.999Z,20.40
2023-01-23T02:19:36.648Z,20.40
2023-01-23T02:22:13.333Z,20.40
2023-01-23T02:24:44.074Z,20.40
2023-01-23T02:27:10.687Z,20.40
2023-01-23T02:29:44.883Z,20.40
2023-01-23T02:32:11.556Z,20.40
2023-01-23T02:34:38.741Z,20.40
2023-01-23T02:37:05.365Z,20.40
2023-01-23T02:39:32.914Z,20.40
2023-01-23T02:41:59.500Z,20.40
2023-01-23T02:44:33.627Z,20.40
2023-01-23T02:47:02.381Z,20.40
2023-01-23T02:49:29.088Z,20.40
2023-01-23T02:51:55.885Z,20.40
2023-01-23T02:54:22.778Z,20.40
2023-01-23T02:56:49.402Z,20.40
2023-01-23T02:59:34.909Z,20.40
2023-01-23T03:02:01.544Z,20.40
2023-01-23T03:04:28.157Z,20.40
2023-01-23T03:06:54.773Z,20.40
2023-01-23T03:09:22.583Z,20.40
2023-01-23T03:11:50.395Z,20.40
2023-01-23T03:14:18.558Z,20.40
2023-01-23T03:16:50.173Z,20.40
2023-01-23T03:19:17.304Z,20.40
2023-01-23T03:21:43.891Z,20.40
2023-01-23T03:24:12.586Z,20.40
2023-01-23T03:26:40.112Z,20.40
2023-01-23T03:29:25.361Z,20.40
2023-01-23T03:31:52.283Z,20.40
2023-01-23T03:34:19.084Z,20.40
2023-01-23T03:36:45.689Z,20.40
2023-01-23T03:39:31.053Z,20.50
2023-01-23T03:41:57.650Z,20.50
2023-01-23T03:44:24.331Z,20.40
2023-01-23T03:46:51.249Z,20.50
2023-01-23T03:49:18.120Z,20.40
2023-01-23T03:51:44.712Z,20.50
2023-01-23T03:54:11.332Z,20.50
2023-01-23T03:56:38.099Z,20.50
2023-01-23T03:59:04.722Z,20.40
2023-01-23T04:01:31.320Z,20.50
2023-01-23T04:03:57.924Z,20.50
2023-01-23T04:06:24.525Z,20.50
2023-01-23T04:08:51.175Z,20.50
2023-01-23T04:11:17.798Z,20.50
2023-01-23T04:13:44.399Z,20.50
2023-01-23T04:16:11.093Z,20.50
2023-01-23T04:18:37.696Z,20.50
2023-01-23T04:21:04.482Z,20.50
2023-01-23T04:23:31.163Z,20.50
2023-01-23T04:25:57.807Z,20.50
2023-01-23T04:28:24.568Z,20.50
2023-01-23T04:30:51.813Z,20.50
2023-01-23T04:33:19.304Z,20.50
2023-01-23T04:35:57.091Z,20.50
2023-01-23T04:38:24.255Z,20.50
2023-01-23T04:40:51.102Z,20.50
2023-01-23T04:43:17.693Z,20.50
2023-01-23T04:45:44.347Z,20.50
2023-01-23T04:48:11.953Z,20.50
2023-01-23T04:50:38.931Z,20.50
2023-01-23T04:53:05.595Z,20.50
2023-01-23T04:55:32.216Z,20.50
2023-01-23T04:57:58.799Z,20.50
2023-01-23T05:00:25.492Z,20.50
2023-01-23T05:02:52.296Z,20.50
2023-01-23T05:05:21.018Z,20.50
2023-01-23T05:07:48.045Z,20.50
2023-01-23T05:10:15.116Z,20.50
2023-01-23T05:12:41.729Z,20.50
2023-01-23T05:15:08.930Z,20.50
2023-01-23T05:17:35.537Z,20.50
2023-01-23T05:20:02.365Z,20.50
2023-01-23T05:22:28.958Z,20.50
2023-01-23T05:24:55.555Z,20.50
2023-01-23T05:27:22.189Z,20.50
2023-01-23T05:29:48.794Z,20.50
2023-01-23T05:32:15.397Z,20.50
2023-01-23T05:34:42.001Z,20.50
2023-01-23T05:37:08.592Z,20.50
2023-01-23T05:39:35.196Z,20.50
2023-01-23T05:42:01.789Z,20.50
2023-01-23T05:44:28.764Z,20.50
2023-01-23T05:46:55.372Z,20.50
2023-01-23T05:49:21.991Z,20.50
2023-01-23T05:51:48.596Z,20.50
2023-01-23T05:54:15.182Z,20.50
2023-01-23T05:56:41.778Z,20.50
2023-01-23T05:59:09.103Z,20.50
2023-01-23T06:01:35.699Z,20.50
2023-01-23T06:04:02.370Z,20.50
2023-01-23T06:06:28.975Z,20.50
2023-01-23T06:08:55.573Z,20.50
2023-01-23T06:11:22.149Z,20.60
2023-01-23T06:13:48.769Z,20.50
2023-01-23T06:16:15.403Z,20.50
2023-01-23T06:18:42.050Z,20.50
2023-01-23T06:21:08.662Z,20.50
2023-01-23T06:23:35.269Z,20.50
2023-01-23T06:26:04.299Z,20.50
2023-01-23T06:28:30.920Z,20.60
2023-01-23T06:31:01.140Z,20.50
2023-01-23T06:33:27.783Z,20.60
2023-01-23T06:36:01.570Z,20.60
2023-01-23T06:38:28.296Z,20.60
2023-01-23T06:40:54.910Z,20.50
2023-01-23T06:43:22.388Z,20.60
2023-01-23T06:45:49.106Z,20.60
2023-01-23T06:48:15.746Z,20.60
2023-01-23T06:50:42.621Z,20.60
2023-01-23T06:53:09.519Z,20.60
2023-01-23T06:55:36.110Z,20.60
2023-01-23T06:58:02.702Z,20.60
2023-01-23T07:00:29.301Z,20.60
2023-01-23T07:02:58.848Z,20.70
2023-01-23T07:05:25.562Z,20.70
2023-01-23T07:07:52.293Z,20.70
2023-01-23T07:10:19.314Z,20.70
2023-01-23T07:12:46.135Z,20.70
2023-01-23T07:15:12.715Z,20.70
2023-01-23T07:17:39.339Z,20.70
2023-01-23T07:20:06.499Z,20.70
2023-01-23T07:22:33.104Z,20.70
2023-01-23T07:24:59.698Z,20.70
2023-01-23T07:27:26.325Z,20.70
2023-01-23T07:29:52.910Z,20.70
2023-01-23T07:32:19.519Z,20.70
2023-01-23T07:34:46.157Z,20.80
2023-01-23T07:37:12.742Z,20.80
2023-01-23T07:39:39.342Z,20.70
2023-01-23T07:42:06.007Z,20.80
2023-01-23T07:44:32.607Z,20.80
2023-01-23T07:46:59.209Z,20.80
2023-01-23T07:49:25.806Z,20.80
2023-01-23T07:51:52.418Z,20.80
2023-01-23T07:54:19.043Z,20.80
2023-01-23T07:56:45.640Z,20.80
2023-01-23T07:59:13.134Z,20.80
2023-01-23T08:01:39.721Z,20.80
2023-01-23T08:04:06.355Z,20.80
2023-01-23T08:06:34.108Z,20.80
2023-01-23T08:09:00.749Z,20.80
2023-01-23T08:11:27.833Z,20.80
2023-01-23T08:13:54.431Z,20.80
2023-01-23T08:16:21.077Z,20.80
2023-01-23T08:18:47.688Z,20.80
2023-01-23T08:21:14.270Z,20.80
2023-01-23T08:23:41.172Z,20.80
2023-01-23T08:26:08.699Z,20.80
2023-01-23T08:28:35.637Z,20.80
2023-01-23T08:31:06.303Z,20.80
2023-01-23T08:33:34.201Z,20.80
2023-01-23T08:36:00.822Z,20.80
2023-01-23T08:38:27.496Z,20.80
2023-01-23T08:40:55.224Z,20.80
2023-01-23T08:43:21.853Z,20.80
2023-01-23T08:45:52.772Z,20.80
2023-01-23T08:48:19.690Z,20.80
2023-01-23T08:50:46.354Z,20.80
2023-01-23T08:53:13.036Z,20.70
2023-01-23T08:55:39.664Z,20.70
2023-01-23T08:58:07.004Z,20.80
2023-01-23T09:00:34.007Z,20.80
2023-01-23T09:03:03.861Z,20.80
2023-01-23T09:05:30.665Z,20.80
2023-01-23T09:08:00.215Z,20.80
2023-01-23T09:10:26.813Z,20.80
2023-01-23T09:12:54.210Z,20.80
2023-01-23T09:15:21.221Z,20.80
2023-01-23T09:17:48.317Z,20.80
2023-01-23T09:20:15.454Z,20.80
2023-01-23T09:22:42.165Z,20.80
2023-01-23T09:25:09.185Z,20.80
2023-01-23T09:27:35.773Z,20.80
2023-01-23T09:30:02.380Z,20.80
2023-01-23T09:32:28.980Z,20.80
2023-01-23T09:34:55.611Z,20.80
2023-01-23T09:37:22.229Z,20.80
2023-01-23T09:39:48.847Z,20.80
2023-01-23T09:42:20.836Z,20.80
2023-01-23T09:44:55.693Z,20.80
2023-01-23T09:47:27.101Z,20.80
2023-01-23T09:50:07.162Z,20.80
2023-01-23T09:52:36.247Z,20.80
2023-01-23T09:55:15.181Z,20.80
2023-01-23T09:57:57.922Z,20.90
2023-01-23T10:00:29.938Z,20.80
2023-01-23T10:02:56.880Z,20.90
2023-01-23T10:05:31.872Z,20.90
2023-01-23T10:08:04.734Z,20.90
2023-01-23T10:10:57.255Z,20.90
2023-01-23T10:13:52.481Z,20.90
2023-01-23T10:16:49.856Z,20.90
2023-01-23T10:19:52.257Z,20.90
2023-01-23T10:22:35.958Z,20.90
2023-01-23T10:25:15.959Z,20.90
2023-01-23T10:27:44.289Z,20.90
2023-01-23T10:30:21.949Z,20.90
2023-01-23T10:33:14.512Z,20.90
2023-01-23T10:35:53.130Z,20.90
2023-01-23T10:38:54.577Z,20.90
2023-01-23T10:41:23.355Z,20.90
2023-01-23T10:43:51.616Z,20.90
2023-01-23T10:46:20.614Z,20.90
2023-01-23T10:48:48.129Z,20.90
2023-01-23T10:51:48.702Z,20.90
2023-01-23T10:54:31.253Z,20.90
2023-01-23T10:57:04.675Z,20.90
2023-01-23T10:59:32.661Z,20.90
2023-01-23T11:02:01.871Z,20.90
2023-01-23T11:04:30.291Z,20.80
2023-01-23T11:07:16.270Z,20.90
2023-01-23T11:09:47.390Z,20.80
2023-01-23T11:12:27.081Z,20.80
2023-01-23T11:15:11.417Z,20.80
2023-01-23T11:17:38.022Z,20.80
2023-01-23T11:20:29.828Z,20.80
2023-01-23T11:23:00.370Z,20.80
2023-01-23T11:25:32.093Z,20.80
2023-01-23T11:28:00.303Z,20.80
2023-01-23T11:30:47.747Z,20.80
2023-01-23T11:33:21.710Z,20.80
2023-01-23T11:36:16.929Z,20.80
2023-01-23T11:38:53.267Z,20.80
2023-01-23T11:41:20.164Z,20.80
2023-01-23T11:43:46.762Z,20.80
2023-01-23T11:46:29.353Z,20.80
2023-01-23T11:49:17.191Z,20.80
2023-01-23T11:52:18.771Z,20.80
2023-01-23T11:55:22.585Z,20.80
2023-01-23T11:58:14.850Z,20.80
2023-01-23T12:00:45.473Z,20.80
2023-01-23T12:03:34.756Z,20.80
2023-01-23T12:06:20.645Z,20.80
2023-01-23T12:09:15.847Z,20.80
2023-01-23T12:12:05.869Z,20.80
2023-01-23T12:14:54.465Z,20.80
2023-01-23T12:17:39.128Z,20.80
2023-01-23T12:20:23.704Z,20.90
2023-01-23T12:23:15.655Z,20.90
2023-01-23T12:25:44.050Z,20.90
2023-01-23T12:28:18.139Z,20.90
2023-01-23T12:30:58.183Z,20.90
2023-01-23T12:34:02.777Z,20.90
2023-01-23T12:36:35.336Z,20.90
2023-01-23T12:39:26.420Z,20.90
2023-01-23T12:41:59.052Z,20.90
2023-01-23T12:44:35.336Z,20.90
2023-01-23T12:47:25.530Z,20.90
2023-01-23T12:50:01.178Z,20.90
2023-01-23T12:52:30.613Z,20.90
2023-01-23T12:55:01.466Z,20.90
2023-01-23T13:00:52.852Z,20.90
2023-01-23T13:03:58.931Z,20.90
2023-01-23T13:06:53.056Z,20.90
2023-01-23T13:09:38.171Z,20.90
2023-01-23T13:12:21.706Z,20.90
2023-01-23T13:15:13.818Z,20.90
2023-01-23T13:17:40.451Z,20.90
2023-01-23T13:20:41.539Z,20.90
2023-01-23T13:23:33.779Z,20.90
2023-01-23T13:26:15.769Z,20.90
2023-01-23T13:28:56.082Z,20.90
2023-01-23T13:31:36.359Z,20.90
2023-01-23T13:34:15.396Z,20.90
2023-01-23T13:36:43.424Z,20.90
2023-01-23T13:39:29.360Z,20.80
2023-01-23T13:42:14.471Z,20.70
2023-01-23T13:45:18.243Z,20.60
2023-01-23T14:22:05.163Z,20.60
2023-01-23T14:24:47.485Z,20.60
2023-01-23T14:27:21.619Z,20.70
2023-01-23T14:29:59.869Z,20.70
2023-01-23T14:32:29.508Z,20.70
2023-01-23T14:34:56.109Z,20.70
2023-01-23T14:37:22.835Z,20.70
2023-01-23T14:39:53.146Z,20.80
2023-01-23T14:42:28.088Z,20.80
2023-01-23T14:44:54.826Z,20.80
2023-01-23T14:47:37.964Z,20.80
2023-01-23T14:50:09.405Z,20.80
2023-01-23T14:52:36.052Z,20.80
2023-01-23T14:55:07.684Z,20.80
2023-01-23T14:57:34.759Z,20.80
2023-01-23T15:00:01.425Z,20.80
2023-01-23T15:02:33.758Z,20.80
2023-01-23T15:05:08.249Z,20.80
2023-01-23T15:07:35.778Z,20.90
2023-01-23T15:10:02.568Z,20.90
2023-01-23T15:12:29.216Z,20.90
2023-01-23T15:14:56.039Z,20.90
2023-01-23T15:17:22.663Z,20.90
2023-01-23T15:19:50.819Z,20.90
2023-01-23T15:22:25.068Z,20.90
2023-01-23T15:24:51.658Z,20.90
2023-01-23T15:27:34.635Z,20.90
2023-01-23T15:30:35.465Z,20.90
2023-01-23T15:33:07.108Z,21.00
2023-01-23T15:35:34.828Z,21.00
2023-01-23T15:38:04.843Z,21.00
2023-01-23T15:40:35.041Z,21.00
2023-01-23T15:43:18.450Z,21.00
2023-01-23T15:45:45.567Z,21.00
2023-01-23T15:48:12.181Z,21.00
2023-01-23T15:50:38.769Z,21.00
2023-01-23T15:53:10.783Z,21.10
2023-01-23T15:55:37.357Z,21.10
2023-01-23T15:58:03.974Z,21.00
2023-01-23T16:00:30.711Z,21.10
2023-01-23T16:02:58.126Z,21.10
2023-01-23T16:05:26.085Z,21.10
2023-01-23T16:07:52.720Z,21.10
2023-01-23T16:10:23.154Z,21.10
2023-01-23T16:12:51.482Z,21.10
2023-01-23T16:15:22.153Z,21.10
2023-01-23T16:17:48.835Z,21.10
2023-01-23T16:20:19.996Z,21.10
2023-01-23T16:22:48.375Z,21.10
2023-01-23T16:25:43.593Z,21.10
2023-01-23T16:28:19.353Z,21.10
2023-01-23T16:30:46.569Z,21.10
2023-01-23T16:33:13.630Z,21.10
2023-01-23T16:35:40.602Z,21.10
2023-01-23T16:38:07.297Z,21.10
2023-01-23T16:40:34.471Z,21.10
2023-01-23T16:43:02.832Z,21.10
2023-01-23T16:45:30.596Z,21.10
2023-01-23T16:47:57.259Z,21.10
2023-01-23T16:50:33.632Z,21.10
2023-01-23T16:53:08.125Z,21.10
2023-01-23T16:55:36.392Z,21.10
2023-01-23T16:58:02.997Z,21.10
2023-01-23T17:00:34.709Z,21.10
2023-01-23T17:03:03.837Z,21.10
2023-01-23T17:05:31.063Z,21.20
2023-01-23T17:07:57.667Z,21.20
2023-01-23T17:10:26.258Z,21.20
2023-01-23T17:12:57.043Z,21.20
2023-01-23T17:15:26.338Z,21.20
2023-01-23T17:17:53.653Z,21.20
2023-01-23T17:20:20.284Z,21.20
2023-01-23T17:22:46.955Z,21.20
2023-01-23T17:25:18.265Z,21.20
2023-01-23T17:27:48.659Z,21.20
2023-01-23T17:30:23.820Z,21.20
2023-01-23T17:32:52.243Z,21.20
2023-01-23T17:35:24.474Z,21.20
2023-01-23T17:37:51.514Z,21.20
2023-01-23T17:40:18.279Z,21.20
2023-01-23T17:42:44.902Z,21.20
2023-01-23T17:45:15.561Z,21.20
2023-01-23T17:47:47.447Z,21.20
2023-01-23T17:50:24.460Z,21.20
2023-01-23T17:52:51.503Z,21.20
2023-01-23T17:55:19.675Z,21.20
2023-01-23T17:57:46.532Z,21.20
2023-01-23T18:00:15.749Z,21.20
2023-01-23T18:02:42.671Z,21.30
2023-01-23T18:05:12.754Z,21.30
2023-01-23T18:07:52.360Z,21.20
2023-01-23T18:10:20.615Z,21.30
2023-01-23T18:13:06.059Z,21.30
2023-01-23T18:16:09.736Z,21.30
2023-01-23T18:18:38.578Z,21.30
2023-01-23T18:21:06.038Z,21.30
2023-01-23T18:23:33.771Z,21.30
2023-01-23T18:26:40.189Z,21.30
2023-01-23T18:29:16.010Z,21.30
2023-01-23T18:31:57.776Z,21.30
2023-01-23T18:34:45.558Z,21.30
2023-01-23T18:37:34.275Z,21.30
2023-01-23T18:40:03.892Z,21.30
2023-01-23T18:43:07.243Z,21.20
2023-01-23T18:45:34.106Z,21.20
2023-01-23T18:48:00.932Z,21.30
2023-01-23T18:50:27.760Z,21.30
2023-01-23T18:53:08.519Z,21.20
2023-01-23T18:55:35.089Z,21.30
2023-01-23T18:58:12.338Z,21.30
2023-01-23T19:01:00.832Z,21.30
2023-01-23T19:03:38.344Z,21.30
2023-01-23T19:06:12.838Z,21.30
2023-01-23T19:08:40.685Z,21.30
2023-01-23T19:11:13.830Z,21.30
2023-01-23T19:14:09.626Z,21.30
2023-01-23T19:16:40.490Z,21.30
2023-01-23T19:19:26.830Z,21.30
2023-01-23T19:21:53.697Z,21.30
2023-01-23T19:24:20.508Z,21.30
2023-01-23T19:26:49.995Z,21.30
2023-01-23T19:29:22.339Z,21.30
2023-01-23T19:32:03.984Z,21.30
2023-01-23T19:34:31.712Z,21.30
2023-01-23T19:36:58.317Z,21.30
2023-01-23T19:39:24.920Z,21.30
2023-01-23T19:41:53.085Z,21.30
2023-01-23T19:44:20.651Z,21.30
2023-01-23T19:46:47.736Z,21.30
2023-01-23T19:49:14.325Z,21.40
2023-01-23T19:51:41.140Z,21.30
2023-01-23T19:54:12.495Z,21.40
2023-01-23T19:56:39.350Z,21.40
2023-01-23T19:59:06.432Z,21.30
2023-01-23T20:01:41.273Z,21.30
2023-01-23T20:04:08.340Z,21.40
2023-01-23T20:06:38.665Z,21.40
2023-01-23T20:09:05.288Z,21.30
2023-01-23T20:11:31.878Z,21.40
2023-01-23T20:13:58.466Z,21.40
2023-01-23T20:16:26.256Z,21.40
2023-01-23T20:18:53.516Z,21.40
2023-01-23T20:21:21.613Z,21.40
2023-01-23T20:23:48.539Z,21.40
2023-01-23T20:26:15.582Z,21.50
2023-01-23T20:28:42.265Z,21.40
2023-01-23T20:31:10.842Z,21.50
2023-01-23T20:33:37.777Z,21.40
2023-01-23T20:36:05.692Z,21.40
2023-01-23T20:38:32.428Z,21.40
2023-01-23T20:41:12.047Z,21.50
2023-01-23T20:43:38.701Z,21.50
2023-01-23T20:46:06.100Z,21.50
2023-01-23T20:48:36.487Z,21.50
2023-01-23T20:51:03.101Z,21.50
2023-01-23T20:53:29.726Z,21.40
2023-01-23T20:56:18.894Z,21.40
2023-01-23T20:59:05.550Z,21.40
2023-01-23T21:01:55.026Z,21.40
2023-01-23T21:04:22.523Z,21.40
2023-01-23T21:06:49.142Z,21.40
2023-01-23T21:09:16.298Z,21.40
2023-01-23T21:11:42.871Z,21.40
2023-01-23T21:14:09.462Z,21.40
2023-01-23T21:16:36.105Z,21.40
2023-01-23T21:19:02.767Z,21.40
2023-01-23T21:21:29.411Z,21.40
2023-01-23T21:23:56.120Z,21.40
2023-01-23T21:26:24.145Z,21.40
2023-01-23T21:28:51.220Z,21.30
2023-01-23T21:31:25.856Z,21.30
2023-01-23T21:33:52.754Z,21.30
2023-01-23T21:36:21.026Z,21.40
2023-01-23T21:38:48.700Z,21.30
2023-01-23T21:41:15.332Z,21.30
2023-01-23T21:43:41.943Z,21.30
2023-01-23T21:46:08.685Z,21.30
2023-01-23T21:48:35.424Z,21.30
2023-01-23T21:51:10.931Z,21.30
2023-01-23T21:53:38.099Z,21.30
2023-01-23T21:56:05.567Z,21.30
2023-01-23T21:58:32.241Z,21.30
2023-01-23T22:01:26.065Z,21.30
2023-01-23T22:03:53.309Z,21.30
2023-01-23T22:06:19.894Z,21.20
2023-01-23T22:08:46.498Z,21.20
2023-01-23T22:11:13.159Z,21.20
2023-01-23T22:13:39.786Z,21.20
2023-01-23T22:16:06.599Z,21.20
2023-01-23T22:18:33.342Z,21.20
2023-01-23T22:21:01.661Z,21.20
2023-01-23T22:23:28.390Z,21.20
2023-01-23T22:26:00.147Z,21.20
2023-01-23T22:28:26.954Z,21.20
2023-01-23T22:30:53.652Z,21.20
2023-01-23T22:33:21.203Z,21.20
2023-01-23T22:35:48.975Z,21.20
2023-01-23T22:38:15.670Z,21.20
2023-01-23T22:40:42.595Z,21.20
2023-01-23T22:43:09.808Z,21.20
2023-01-23T22:45:36.855Z,21.20
2023-01-23T22:48:03.528Z,21.20
2023-01-23T22:50:30.144Z,21.20
2023-01-23T22:52:56.739Z,21.20
2023-01-23T22:55:23.639Z,21.10
2023-01-23T22:57:52.773Z,21.20
2023-01-23T23:00:19.676Z,21.20
2023-01-23T23:02:46.276Z,21.10
2023-01-23T23:05:12.872Z,21.10
2023-01-23T23:07:39.518Z,21.10
2023-01-23T23:10:06.981Z,21.10
2023-01-23T23:12:33.589Z,21.10
2023-01-23T23:15:00.210Z,21.10
2023-01-23T23:17:28.865Z,21.10
2023-01-23T23:19:55.511Z,21.10
2023-01-23T23:22:22.131Z,21.10
2023-01-23T23:24:48.721Z,21.10
2023-01-23T23:27:15.304Z,21.10
2023-01-23T23:29:56.624Z,21.10
2023-01-23T23:32:23.273Z,21.10
2023-01-23T23:34:49.894Z,21.10
2023-01-23T23:37:16.483Z,21.10
2023-01-23T23:39:43.094Z,21.00
2023-01-23T23:42:09.673Z,21.00
2023-01-23T23:44:36.293Z,21.10
2023-01-23T23:47:02.874Z,21.10
2023-01-23T23:49:29.500Z,21.10
2023-01-23T23:51:56.108Z,21.10
2023-01-23T23:54:22.717Z,21.10
2023-01-23T23:56:49.360Z,21.00
2023-01-23T23:59:16.647Z,21.00
